Time;durP1;ratioP1;P1;durP2;ratioP2;P2;SDS_P1;SDS_P2;PMS_P1;PMS_P2;Temp;Humidity;BMP_temperature;BMP_pressure;BME280_temperature;BME280_humidity;BME280_pressure;Samples;Min_cycle;Max_cycle;Signal;HPM_P1;HPM_P2
2022/11/06 00:00:10;;;;;;;6.20;1.50;;;8.90;99.90;;;;;;6165377;28;20310;-68
2022/11/06 00:03:22;;;;;;;1.77;1.23;;;8.90;99.90;;;;;;6166083;29;20307;-67
2022/11/06 00:09:50;;;;;;;5.15;1.23;;;8.90;99.90;;;;;;6166137;29;20631;-67
2022/11/06 00:12:54;;;;;;;2.67;1.40;;;8.80;99.90;;;;;;6165486;29;20289;-68
2022/11/06 00:16:03;;;;;;;1.67;1.27;;;8.90;99.90;;;;;;6111512;29;20272;-68
2022/11/06 00:19:13;;;;;;;3.90;1.50;;;8.90;99.90;;;;;;6118275;29;20305;-68
2022/11/06 00:22:18;;;;;;;8.30;1.52;;;8.90;99.90;;;;;;6119014;29;20587;-68
2022/11/06 00:25:23;;;;;;;2.25;1.30;;;8.90;99.90;;;;;;6118534;29;20305;-68
2022/11/06 00:28:28;;;;;;;1.92;1.30;;;8.90;99.90;;;;;;6118002;29;20308;-68
2022/11/06 00:31:36;;;;;;;5.05;1.80;;;8.90;99.90;;;;;;6118597;29;20559;-68
2022/11/06 00:34:42;;;;;;;2.17;1.40;;;9.00;99.90;;;;;;6117943;29;20296;-68
2022/11/06 00:37:48;;;;;;;2.22;1.40;;;8.90;99.90;;;;;;6118704;29;20568;-67
2022/11/06 00:40:52;;;;;;;1.30;1.20;;;8.90;99.90;;;;;;6117813;29;20596;-67
2022/11/06 00:44:00;;;;;;;4.35;1.38;;;8.90;99.90;;;;;;6117361;29;20303;-68
2022/11/06 00:47:06;;;;;;;3.53;1.27;;;8.80;99.90;;;;;;6118400;29;20277;-68
2022/11/06 00:50:16;;;;;;;2.67;1.50;;;8.80;99.90;;;;;;6118047;29;20305;-68
2022/11/06 00:53:21;;;;;;;1.35;1.25;;;8.80;99.90;;;;;;6117583;29;20300;-68
2022/11/06 00:56:27;;;;;;;3.53;1.45;;;8.80;99.90;;;;;;6117974;29;20275;-68
2022/11/06 00:59:32;;;;;;;2.47;1.40;;;8.80;99.90;;;;;;6117285;29;20304;-69
2022/11/06 01:02:38;;;;;;;6.68;1.45;;;8.70;99.90;;;;;;6118212;29;20276;-68
2022/11/06 01:05:44;;;;;;;1.33;1.02;;;8.70;99.90;;;;;;6117057;29;20311;-68
2022/11/06 01:08:49;;;;;;;6.35;1.50;;;8.70;99.90;;;;;;6117219;29;20295;-68
2022/11/06 01:12:00;;;;;;;2.58;1.40;;;8.60;99.90;;;;;;6117318;29;20268;-68
2022/11/06 01:15:20;;;;;;;2.90;1.40;;;8.50;99.90;;;;;;6136587;29;20306;-67
2022/11/06 01:18:25;;;;;;;1.33;1.25;;;8.50;99.90;;;;;;6140640;29;20307;-69
2022/11/06 01:21:34;;;;;;;1.50;1.40;;;8.40;99.90;;;;;;6141344;29;20270;-68
2022/11/06 01:24:39;;;;;;;4.10;1.40;;;8.40;99.90;;;;;;6140621;29;20299;-68
2022/11/06 01:27:44;;;;;;;5.22;1.45;;;8.30;99.90;;;;;;6141063;29;20271;-68
2022/11/06 01:30:50;;;;;;;2.97;1.30;;;8.30;99.90;;;;;;6140657;29;20299;-68
2022/11/06 01:33:57;;;;;;;2.33;1.10;;;8.40;99.90;;;;;;6140417;29;20486;-69
2022/11/06 01:37:03;;;;;;;1.67;1.27;;;8.30;99.90;;;;;;6141021;29;20278;-68
2022/11/06 01:40:09;;;;;;;3.17;1.30;;;8.30;99.90;;;;;;6139991;29;20299;-68
2022/11/06 01:43:18;;;;;;;3.75;1.08;;;8.40;99.90;;;;;;6140044;29;20303;-68
2022/11/06 01:46:25;;;;;;;2.08;1.38;;;8.40;99.90;;;;;;6139922;29;20374;-68
2022/11/06 01:49:35;;;;;;;1.05;1.00;;;8.50;99.90;;;;;;6139863;29;20298;-69
2022/11/06 01:52:41;;;;;;;2.35;1.20;;;8.50;99.90;;;;;;6140462;29;20275;-68
2022/11/06 01:55:48;;;;;;;2.05;1.17;;;8.40;99.90;;;;;;6140170;29;20299;-68
2022/11/06 01:58:54;;;;;;;2.53;1.30;;;8.40;99.90;;;;;;6139557;29;20408;-68
2022/11/06 02:01:59;;;;;;;3.80;1.00;;;8.40;99.90;;;;;;6140178;29;20279;-68
2022/11/06 02:05:05;;;;;;;2.33;1.10;;;8.30;99.90;;;;;;6139492;29;20299;-68
2022/11/06 02:08:18;;;;;;;1.17;1.08;;;8.30;99.90;;;;;;6140063;29;20320;-68
2022/11/06 02:11:23;;;;;;;1.58;1.02;;;8.30;99.90;;;;;;6140342;29;20271;-67
2022/11/06 02:14:34;;;;;;;3.75;1.10;;;8.30;99.90;;;;;;6151728;29;20294;-68
2022/11/06 02:17:56;;;;;;;2.92;1.10;;;8.30;99.90;;;;;;6163859;29;20550;-68
2022/11/06 02:21:39;;;;;;;1.58;1.20;;;8.30;99.90;;;;;;6162829;29;20577;-68
2022/11/06 02:25:08;;;;;;;2.97;1.10;;;8.20;99.90;;;;;;6169273;28;20298;-67
2022/11/06 02:28:23;;;;;;;1.83;1.10;;;8.20;99.90;;;;;;6170913;29;20307;-67
2022/11/06 02:31:32;;;;;;;2.88;1.20;;;8.20;99.90;;;;;;6171398;29;20274;-68
2022/11/06 02:34:37;;;;;;;1.60;1.00;;;8.10;99.90;;;;;;6171404;29;20301;-68
2022/11/06 02:37:45;;;;;;;1.45;1.20;;;8.20;99.90;;;;;;6172061;28;20274;-68
2022/11/06 02:40:53;;;;;;;2.03;1.27;;;8.20;99.90;;;;;;6171231;28;20294;-67
2022/11/06 02:43:59;;;;;;;1.80;1.33;;;8.10;99.90;;;;;;6171009;28;20298;-68
2022/11/06 02:47:07;;;;;;;3.20;1.20;;;8.10;99.90;;;;;;6171689;29;20286;-67
2022/11/06 02:50:17;;;;;;;3.05;1.40;;;8.00;99.90;;;;;;6170773;28;20302;-68
2022/11/06 02:53:25;;;;;;;2.33;1.30;;;8.00;99.90;;;;;;6170993;28;20294;-68
2022/11/06 02:56:35;;;;;;;3.08;1.35;;;8.10;99.90;;;;;;6171530;28;20510;-68
2022/11/06 02:59:47;;;;;;;1.35;0.93;;;8.10;99.90;;;;;;6171046;29;20485;-68
2022/11/06 03:02:56;;;;;;;1.45;1.35;;;8.10;99.90;;;;;;6171505;29;20274;-68
2022/11/06 03:06:06;;;;;;;1.45;1.38;;;8.00;99.90;;;;;;6153283;29;20310;-69
2022/11/06 03:09:15;;;;;;;2.83;1.40;;;8.00;99.90;;;;;;6170856;28;20585;-68
2022/11/06 03:12:25;;;;;;;3.65;0.90;;;8.00;99.90;;;;;;6171177;29;20427;-68
2022/11/06 03:15:38;;;;;;;1.25;1.20;;;8.00;99.90;;;;;;6150005;29;20570;-68
2022/11/06 03:18:50;;;;;;;2.08;1.10;;;8.00;99.90;;;;;;6146843;29;20618;-67
2022/11/06 03:22:04;;;;;;;4.85;1.48;;;8.00;99.90;;;;;;6147581;29;20271;-68
2022/11/06 03:25:15;;;;;;;1.58;1.30;;;8.00;99.90;;;;;;6146437;29;20291;-67
2022/11/06 03:28:26;;;;;;;2.60;1.20;;;8.00;99.90;;;;;;6146418;29;20299;-68
2022/11/06 03:31:36;;;;;;;4.53;1.48;;;8.00;99.90;;;;;;6147007;29;20267;-68
2022/11/06 03:34:49;;;;;;;3.03;1.20;;;7.90;99.90;;;;;;6145701;29;20299;-68
2022/11/06 03:38:01;;;;;;;1.77;1.38;;;7.90;99.90;;;;;;6135604;29;20271;-68
2022/11/06 03:41:13;;;;;;;1.85;1.48;;;7.90;99.90;;;;;;6142359;29;20275;-68
2022/11/06 03:44:20;;;;;;;5.35;1.45;;;7.90;99.90;;;;;;6126271;29;20295;-68
2022/11/06 03:47:31;;;;;;;6.50;1.80;;;8.00;99.90;;;;;;6143235;29;20618;-68
2022/11/06 03:50:39;;;;;;;1.67;1.27;;;8.00;99.90;;;;;;6143943;29;20310;-68
2022/11/06 03:53:48;;;;;;;1.48;1.38;;;8.00;99.90;;;;;;6143764;29;20303;-68
2022/11/06 03:56:57;;;;;;;3.80;1.42;;;7.90;99.90;;;;;;6143267;29;20279;-68
2022/11/06 04:00:06;;;;;;;6.30;1.75;;;8.00;99.90;;;;;;6142281;29;20299;-68
2022/11/06 04:03:23;;;;;;;2.40;1.38;;;7.90;99.90;;;;;;6135403;29;20302;-67
2022/11/06 04:06:32;;;;;;;5.30;1.40;;;7.90;99.90;;;;;;6127019;29;20488;-68
2022/11/06 04:16:33;;;;;;;2.10;1.30;;;7.90;99.90;;;;;;6099152;29;20280;-68
2022/11/06 04:19:43;;;;;;;2.20;1.30;;;7.90;99.90;;;;;;6129302;29;20306;-68
2022/11/06 04:22:56;;;;;;;2.83;1.27;;;7.90;99.90;;;;;;6124879;29;20295;-68
2022/11/06 04:29:41;;;;;;;4.95;1.50;;;8.00;99.90;;;;;;6141849;29;20299;-68
2022/11/06 04:32:59;;;;;;;2.47;1.50;;;8.10;99.90;;;;;;6141717;29;20299;-68
2022/11/06 04:36:11;;;;;;;2.00;1.50;;;8.10;99.90;;;;;;6148132;29;20263;-68
2022/11/06 04:39:22;;;;;;;4.22;1.50;;;8.10;99.90;;;;;;6165440;29;20307;-68
2022/11/06 04:42:33;;;;;;;1.40;1.40;;;8.10;99.90;;;;;;6165235;29;20299;-68
2022/11/06 04:45:42;;;;;;;1.33;1.30;;;8.10;99.90;;;;;;6165893;28;20554;-68
2022/11/06 04:48:48;;;;;;;10.88;2.83;;;8.10;99.90;;;;;;6164629;29;20302;-68
2022/11/06 04:51:54;;;;;;;4.05;1.40;;;8.10;99.90;;;;;;6165780;29;20293;-68
2022/11/06 04:54:59;;;;;;;6.03;1.40;;;8.10;99.90;;;;;;6165062;29;20291;-68
2022/11/06 04:58:04;;;;;;;1.95;1.20;;;8.10;99.90;;;;;;6164787;29;20298;-68
2022/11/06 05:01:09;;;;;;;2.33;1.40;;;8.10;99.90;;;;;;6165731;29;20267;-68
2022/11/06 05:04:14;;;;;;;1.40;1.27;;;8.10;99.90;;;;;;6165106;28;20291;-68
2022/11/06 05:07:20;;;;;;;7.53;1.58;;;8.10;99.90;;;;;;6164497;29;20299;-67
2022/11/06 05:10:26;;;;;;;2.67;1.35;;;8.10;99.90;;;;;;6157802;29;20279;-68
2022/11/06 05:13:31;;;;;;;5.10;1.55;;;8.00;99.90;;;;;;6140948;29;20295;-68
2022/11/06 05:16:36;;;;;;;3.55;1.35;;;8.10;99.90;;;;;;6141613;29;20271;-68
2022/11/06 05:19:41;;;;;;;6.80;1.40;;;8.00;99.90;;;;;;6140425;29;20472;-68
2022/11/06 05:22:59;;;;;;;3.50;1.27;;;8.00;99.90;;;;;;6140981;29;20297;-68
2022/11/06 05:26:04;;;;;;;2.15;1.30;;;8.00;99.90;;;;;;6141334;29;20271;-68
2022/11/06 05:29:10;;;;;;;1.42;1.30;;;8.00;99.90;;;;;;6141197;29;20310;-68
2022/11/06 05:32:15;;;;;;;1.45;1.30;;;8.00;99.90;;;;;;6139974;29;20284;-68
2022/11/06 05:35:21;;;;;;;2.85;1.33;;;8.00;99.90;;;;;;6141225;29;20275;-68
2022/11/06 05:38:27;;;;;;;2.28;1.50;;;8.10;99.90;;;;;;6140563;29;20591;-68
2022/11/06 05:41:31;;;;;;;3.25;1.40;;;8.10;99.90;;;;;;6123688;29;20291;-68
2022/11/06 05:44:37;;;;;;;2.38;1.40;;;8.10;99.90;;;;;;6140414;29;20310;-68
2022/11/06 05:47:42;;;;;;;1.60;1.50;;;8.10;99.90;;;;;;6139718;29;20298;-68
2022/11/06 05:50:47;;;;;;;3.10;1.00;;;8.10;99.90;;;;;;6140900;29;20267;-68
2022/11/06 05:53:53;;;;;;;2.25;1.10;;;8.10;99.90;;;;;;6140007;29;20594;-69
2022/11/06 05:56:58;;;;;;;1.30;1.13;;;8.10;99.90;;;;;;6140714;29;20271;-68
2022/11/06 06:00:04;;;;;;;3.78;1.50;;;8.10;99.90;;;;;;6139200;29;20278;-69
2022/11/06 06:03:16;;;;;;;1.58;1.40;;;8.10;99.90;;;;;;6140151;29;20298;-68
2022/11/06 06:06:21;;;;;;;3.88;1.25;;;8.10;99.90;;;;;;6140148;29;20303;-68
2022/11/06 06:09:27;;;;;;;1.75;1.20;;;8.10;99.90;;;;;;6139549;29;20307;-68
2022/11/06 06:12:32;;;;;;;2.88;1.38;;;8.10;99.90;;;;;;6116137;29;20304;-68
2022/11/06 06:15:38;;;;;;;2.28;1.60;;;8.00;99.90;;;;;;6117017;29;20547;-68
2022/11/06 06:18:43;;;;;;;1.83;1.45;;;8.00;99.90;;;;;;6116394;29;20311;-69
2022/11/06 06:21:49;;;;;;;2.80;1.40;;;8.10;99.90;;;;;;6116399;29;20544;-68
2022/11/06 06:24:56;;;;;;;2.33;1.38;;;8.10;99.90;;;;;;6116353;29;20303;-68
2022/11/06 06:28:00;;;;;;;1.60;1.50;;;8.00;99.90;;;;;;6115855;29;20304;-68
2022/11/06 06:31:06;;;;;;;2.00;1.40;;;8.00;99.90;;;;;;6116599;29;20460;-68
2022/11/06 06:34:11;;;;;;;5.25;1.58;;;8.00;99.90;;;;;;6115763;29;20299;-67
2022/11/06 06:37:17;;;;;;;2.92;1.50;;;8.00;99.90;;;;;;6116054;29;20271;-68
2022/11/06 06:40:25;;;;;;;1.40;1.30;;;8.00;99.90;;;;;;6116234;29;20281;-68
2022/11/06 06:43:31;;;;;;;2.03;1.77;;;8.00;99.90;;;;;;6115662;29;20303;-68
2022/11/06 06:46:35;;;;;;;3.47;1.80;;;8.00;99.90;;;;;;6116532;29;20267;-69
2022/11/06 06:49:40;;;;;;;2.30;1.52;;;8.00;99.90;;;;;;6115770;29;20300;-68
2022/11/06 06:52:46;;;;;;;1.30;1.30;;;8.00;99.90;;;;;;6115820;29;20296;-68
2022/11/06 06:55:52;;;;;;;1.65;1.40;;;8.00;99.90;;;;;;6115839;29;20276;-67
2022/11/06 06:58:57;;;;;;;2.67;1.60;;;8.00;99.90;;;;;;6114877;29;20300;-68
2022/11/06 07:02:02;;;;;;;1.95;1.80;;;8.00;99.90;;;;;;6115535;29;20573;-68
2022/11/06 07:05:09;;;;;;;3.70;1.55;;;7.90;99.90;;;;;;6116054;29;20279;-68
2022/11/06 07:08:14;;;;;;;2.67;1.70;;;8.00;99.90;;;;;;6115099;29;20610;-68
2022/11/06 07:11:21;;;;;;;1.58;1.50;;;8.00;99.90;;;;;;6133991;29;20263;-67
2022/11/06 07:14:26;;;;;;;2.50;1.65;;;8.00;99.90;;;;;;6143834;29;20299;-67
2022/11/06 07:17:31;;;;;;;2.35;1.67;;;8.00;99.90;;;;;;6143202;29;20402;-68
2022/11/06 07:20:38;;;;;;;3.40;1.58;;;8.00;99.90;;;;;;6144130;29;20275;-68
2022/11/06 07:23:44;;;;;;;6.43;1.60;;;8.00;99.90;;;;;;6143576;29;20299;-69
2022/11/06 07:26:50;;;;;;;3.00;1.60;;;8.00;99.90;;;;;;6144143;29;20551;-68
2022/11/06 07:29:55;;;;;;;1.80;1.63;;;8.00;99.90;;;;;;6143230;29;20302;-68
2022/11/06 07:33:00;;;;;;;1.92;1.80;;;8.10;99.90;;;;;;6143418;29;20296;-67
2022/11/06 07:36:07;;;;;;;2.90;1.80;;;8.10;99.90;;;;;;6143581;29;20553;-68
2022/11/06 07:39:15;;;;;;;3.88;1.55;;;8.00;99.90;;;;;;6143392;29;20307;-68
2022/11/06 07:42:21;;;;;;;2.97;1.67;;;8.10;99.90;;;;;;6142621;29;20266;-68
2022/11/06 07:45:40;;;;;;;1.65;1.52;;;8.10;99.90;;;;;;6126811;29;20268;-68
2022/11/06 07:48:45;;;;;;;2.40;1.52;;;8.20;99.90;;;;;;6142700;29;20299;-68
2022/11/06 07:51:49;;;;;;;4.53;1.83;;;8.20;99.90;;;;;;6143358;29;20275;-68
2022/11/06 07:54:54;;;;;;;2.35;2.15;;;8.30;99.90;;;;;;6142850;29;20478;-67
2022/11/06 07:58:00;;;;;;;3.75;2.00;;;8.30;99.90;;;;;;6142573;29;20299;-67
2022/11/06 08:01:05;;;;;;;1.98;1.80;;;8.30;99.90;;;;;;6143090;29;20271;-68
2022/11/06 08:04:12;;;;;;;1.90;1.70;;;8.30;99.90;;;;;;6142338;29;20303;-68
2022/11/06 08:07:17;;;;;;;1.95;1.85;;;8.40;99.90;;;;;;6142133;29;20299;-68
2022/11/06 08:10:22;;;;;;;1.80;1.80;;;8.40;99.90;;;;;;6149799;29;20282;-68
2022/11/06 08:13:28;;;;;;;2.30;2.10;;;8.50;99.90;;;;;;6166081;29;20295;-68
2022/11/06 08:16:33;;;;;;;2.20;2.00;;;8.50;99.90;;;;;;6166651;29;20266;-69
2022/11/06 08:19:38;;;;;;;3.75;2.10;;;8.50;99.90;;;;;;6165920;29;20295;-68
2022/11/06 08:22:42;;;;;;;3.70;2.35;;;8.50;99.90;;;;;;6165374;28;20290;-69
2022/11/06 08:25:47;;;;;;;3.25;1.83;;;8.50;99.90;;;;;;6166502;29;20356;-68
2022/11/06 08:28:54;;;;;;;1.95;1.85;;;8.50;99.90;;;;;;6165644;29;20310;-68
2022/11/06 08:31:58;;;;;;;5.88;2.05;;;8.60;99.90;;;;;;6166294;29;20267;-68
2022/11/06 08:35:04;;;;;;;3.72;2.00;;;8.60;99.90;;;;;;6165121;29;20546;-69
2022/11/06 08:38:09;;;;;;;5.40;2.20;;;8.60;99.90;;;;;;6165836;29;20478;-68
2022/11/06 08:41:14;;;;;;;5.20;1.95;;;8.60;99.90;;;;;;6166087;29;20270;-69
2022/11/06 08:44:21;;;;;;;5.05;1.80;;;8.70;99.90;;;;;;6165621;29;20290;-68
2022/11/06 08:47:25;;;;;;;5.25;2.28;;;8.70;99.90;;;;;;6165563;29;20294;-69
2022/11/06 08:50:32;;;;;;;6.20;2.53;;;8.70;99.90;;;;;;6166709;29;20286;-68
2022/11/06 08:53:37;;;;;;;2.25;1.80;;;8.70;99.90;;;;;;6166484;29;20302;-68
2022/11/06 08:56:42;;;;;;;1.80;1.80;;;8.80;99.90;;;;;;6166360;29;20267;-68
2022/11/06 08:59:48;;;;;;;2.15;1.80;;;8.80;99.90;;;;;;6164882;29;20301;-68
2022/11/06 09:02:58;;;;;;;4.13;2.10;;;8.80;99.90;;;;;;6164936;29;20602;-68
2022/11/06 09:06:07;;;;;;;2.85;2.08;;;8.80;99.90;;;;;;6164916;29;20302;-68
2022/11/06 09:09:12;;;;;;;2.15;2.05;;;8.80;99.90;;;;;;6164581;29;20310;-68
2022/11/06 09:12:17;;;;;;;4.10;2.70;;;8.90;99.90;;;;;;6142395;29;20267;-68
2022/11/06 09:15:23;;;;;;;3.53;2.08;;;8.90;99.90;;;;;;6141437;29;20271;-68
2022/11/06 09:18:28;;;;;;;4.45;2.10;;;8.90;99.90;;;;;;6140783;29;20298;-68
2022/11/06 09:21:34;;;;;;;2.00;1.90;;;8.90;99.90;;;;;;6141185;29;20279;-68
2022/11/06 09:24:39;;;;;;;6.55;2.47;;;8.90;99.90;;;;;;6140605;29;20299;-68
2022/11/06 09:28:04;;;;;;;2.50;2.22;;;9.00;99.90;;;;;;6140554;29;20295;-68
2022/11/06 09:31:12;;;;;;;4.50;2.17;;;9.10;99.90;;;;;;6141127;29;20291;-67
2022/11/06 09:34:17;;;;;;;5.22;2.67;;;9.10;99.90;;;;;;6140198;29;20298;-68
2022/11/06 09:37:21;;;;;;;2.70;2.55;;;9.10;99.90;;;;;;6140583;29;20307;-67
2022/11/06 09:40:31;;;;;;;2.55;2.35;;;9.30;99.90;;;;;;6140961;29;20287;-68
2022/11/06 09:43:53;;;;;;;7.75;2.72;;;9.40;99.90;;;;;;6140009;29;20298;-68
2022/11/06 09:47:19;;;;;;;3.90;2.25;;;9.30;99.90;;;;;;6140524;29;20343;-68
2022/11/06 09:50:29;;;;;;;2.45;2.35;;;9.40;99.90;;;;;;6140580;29;20295;-68
2022/11/06 09:53:39;;;;;;;2.30;2.20;;;9.40;99.90;;;;;;6140166;29;20295;-68
2022/11/06 09:56:45;;;;;;;2.60;2.40;;;9.50;99.90;;;;;;6140273;29;20271;-68
2022/11/06 09:59:50;;;;;;;6.80;2.60;;;9.50;99.90;;;;;;6140041;29;20299;-68
2022/11/06 10:03:00;;;;;;;2.72;2.50;;;9.60;99.90;;;;;;6139971;29;20287;-68
2022/11/06 10:06:06;;;;;;;3.42;2.83;;;9.70;99.90;;;;;;6140143;29;20304;-68
2022/11/06 10:09:12;;;;;;;2.78;2.55;;;9.60;99.90;;;;;;6140060;29;20299;-68
2022/11/06 10:12:25;;;;;;;3.20;2.55;;;9.70;99.90;;;;;;6139298;29;20283;-67
2022/11/06 10:15:34;;;;;;;2.85;2.47;;;9.80;99.90;;;;;;6139846;29;20274;-68
2022/11/06 10:18:54;;;;;;;2.55;2.33;;;9.90;99.90;;;;;;6139760;29;20304;-69
2022/11/06 10:22:11;;;;;;;5.28;2.58;;;9.90;99.90;;;;;;6139959;29;20468;-68
2022/11/06 10:25:21;;;;;;;2.90;2.63;;;9.90;99.90;;;;;;6139485;29;20271;-67
2022/11/06 10:28:45;;;;;;;8.65;2.60;;;9.90;99.90;;;;;;6139471;29;20299;-67
2022/11/06 10:32:04;;;;;;;2.40;2.30;;;10.00;99.90;;;;;;6139914;29;20487;-67
2022/11/06 10:35:19;;;;;;;4.30;2.92;;;10.00;99.90;;;;;;6138771;29;20571;-67
2022/11/06 10:38:28;;;;;;;2.90;2.60;;;10.00;99.90;;;;;;6139804;29;20485;-68
2022/11/06 10:41:34;;;;;;;5.32;3.05;;;10.10;99.90;;;;;;6140111;29;20591;-68
2022/11/06 10:44:42;;;;;;;3.72;2.67;;;10.10;99.90;;;;;;6140716;29;20295;-67
2022/11/06 10:47:52;;;;;;;5.75;2.67;;;10.10;99.90;;;;;;6144271;29;20294;-67
2022/11/06 10:51:14;;;;;;;10.38;3.10;;;10.10;99.90;;;;;;6144423;29;20614;-67
2022/11/06 10:54:31;;;;;;;3.25;3.03;;;10.10;99.90;;;;;;6144099;29;20318;-67
2022/11/06 10:57:40;;;;;;;7.15;2.58;;;10.10;99.90;;;;;;6143524;29;20290;-68
2022/11/06 11:00:46;;;;;;;4.40;2.60;;;10.20;99.90;;;;;;6144138;29;20279;-68
2022/11/06 11:03:51;;;;;;;5.15;2.63;;;10.20;99.90;;;;;;6143567;29;20300;-68
2022/11/06 11:06:57;;;;;;;3.58;2.70;;;10.20;99.90;;;;;;6144092;29;20299;-68
2022/11/06 11:10:27;;;;;;;2.95;2.85;;;10.30;99.90;;;;;;6143443;29;20271;-68
2022/11/06 11:13:33;;;;;;;3.10;2.80;;;10.30;99.90;;;;;;6143523;29;20295;-68
2022/11/06 11:16:40;;;;;;;7.85;2.47;;;10.30;99.90;;;;;;6127589;29;20575;-68
2022/11/06 11:19:44;;;;;;;12.73;3.53;;;10.30;99.90;;;;;;6143219;29;20303;-68
2022/11/06 11:23:06;;;;;;;3.78;3.05;;;10.40;99.90;;;;;;6143295;29;20310;-68
2022/11/06 11:26:20;;;;;;;4.00;2.60;;;10.40;99.90;;;;;;6143590;29;20275;-68
2022/11/06 11:29:27;;;;;;;3.03;2.70;;;10.40;99.90;;;;;;6142972;29;20295;-68
2022/11/06 11:32:32;;;;;;;3.72;2.28;;;10.50;99.90;;;;;;6142994;29;20584;-67
2022/11/06 11:35:38;;;;;;;3.03;2.72;;;10.40;99.90;;;;;;6143265;29;20434;-69
2022/11/06 11:38:44;;;;;;;5.78;2.83;;;10.50;99.90;;;;;;6143048;29;20439;-68
2022/11/06 11:41:49;;;;;;;3.15;2.70;;;10.50;99.90;;;;;;6143376;29;20279;-68
2022/11/06 11:45:17;;;;;;;3.30;2.70;;;10.50;99.90;;;;;;6143037;29;20444;-67
2022/11/06 11:48:23;;;;;;;2.97;2.75;;;10.50;99.90;;;;;;6142734;29;20294;-67
2022/11/06 11:51:35;;;;;;;3.92;3.17;;;10.50;99.90;;;;;;6142808;29;20294;-67
2022/11/06 11:54:48;;;;;;;5.40;3.10;;;10.40;99.90;;;;;;6142683;29;20429;-67
2022/11/06 11:57:55;;;;;;;3.35;3.10;;;10.40;99.90;;;;;;6141258;29;20307;-68
2022/11/06 12:01:03;;;;;;;3.38;3.08;;;10.50;99.90;;;;;;6142643;29;20278;-68
2022/11/06 12:04:16;;;;;;;3.78;3.25;;;10.50;99.90;;;;;;6142255;29;20307;-69
2022/11/06 12:07:26;;;;;;;5.88;3.58;;;10.50;99.90;;;;;;6141803;29;20291;-68
2022/11/06 12:10:35;;;;;;;5.20;3.42;;;10.40;99.90;;;;;;6150925;29;20290;-68
2022/11/06 12:13:40;;;;;;;6.03;4.15;;;10.40;99.90;;;;;;6165953;29;20294;-68
2022/11/06 12:16:49;;;;;;;3.78;3.40;;;10.50;99.90;;;;;;6166533;29;20270;-68
2022/11/06 12:19:57;;;;;;;5.80;3.70;;;10.50;99.90;;;;;;6166099;29;20241;-67
2022/11/06 12:23:02;;;;;;;7.35;3.70;;;10.50;99.90;;;;;;6165579;29;20483;-67
2022/11/06 12:26:19;;;;;;;6.03;3.30;;;10.50;99.90;;;;;;6166595;29;20271;-68
2022/11/06 12:29:31;;;;;;;4.00;3.70;;;10.50;99.90;;;;;;6165977;29;20298;-68
2022/11/06 12:32:56;;;;;;;4.65;3.10;;;10.50;99.90;;;;;;6165713;29;20294;-66
2022/11/06 12:36:05;;;;;;;7.13;3.75;;;10.60;99.90;;;;;;6149040;29;20270;-67
2022/11/06 12:39:14;;;;;;;4.13;3.00;;;10.50;99.90;;;;;;6165693;29;20303;-68
2022/11/06 12:42:23;;;;;;;3.05;2.72;;;10.60;99.90;;;;;;6165644;29;20279;-68
2022/11/06 12:45:43;;;;;;;4.85;2.67;;;10.80;99.90;;;;;;6165702;29;20277;-68
2022/11/06 12:49:22;;;;;;;3.13;2.92;;;10.70;99.90;;;;;;6164998;29;20302;-68
2022/11/06 12:52:42;;;;;;;4.38;2.88;;;10.60;99.90;;;;;;6165074;29;20295;-68
2022/11/06 12:55:54;;;;;;;3.45;2.92;;;10.60;99.90;;;;;;6165607;29;20266;-68
2022/11/06 12:59:13;;;;;;;3.88;2.80;;;10.60;99.90;;;;;;6165070;29;20302;-68
2022/11/06 13:02:32;;;;;;;5.50;2.63;;;10.70;99.90;;;;;;6164895;29;20270;-67
2022/11/06 13:05:45;;;;;;;8.02;3.17;;;10.80;99.90;;;;;;6165000;29;20271;-67
2022/11/06 13:08:55;;;;;;;4.88;2.70;;;10.70;99.90;;;;;;6164582;28;20303;-68
2022/11/06 13:12:06;;;;;;;3.92;2.70;;;10.60;99.90;;;;;;6145154;29;20575;-68
2022/11/06 13:15:24;;;;;;;4.45;2.85;;;10.50;99.90;;;;;;6140426;29;20283;-68
2022/11/06 13:18:34;;;;;;;6.68;3.00;;;10.60;99.90;;;;;;6140885;29;20303;-67
2022/11/06 13:22:01;;;;;;;3.25;3.05;;;10.40;99.90;;;;;;6124665;29;20315;-67
2022/11/06 13:25:14;;;;;;;5.72;2.80;;;10.30;99.90;;;;;;6140101;29;20276;-68
2022/11/06 13:28:29;;;;;;;9.45;3.22;;;10.40;99.90;;;;;;6140560;29;20599;-68
2022/11/06 13:31:39;;;;;;;3.00;2.80;;;10.40;99.90;;;;;;6141173;29;20271;-68
2022/11/06 13:34:47;;;;;;;4.53;3.10;;;10.20;99.90;;;;;;6140523;29;20303;-68
2022/11/06 13:37:52;;;;;;;4.93;3.80;;;10.20;99.90;;;;;;6140606;29;20296;-67
2022/11/06 13:41:00;;;;;;;4.65;3.47;;;10.20;99.90;;;;;;6140682;29;20452;-68
2022/11/06 13:44:14;;;;;;;5.18;3.50;;;10.10;99.90;;;;;;6123363;29;20294;-68
2022/11/06 13:47:27;;;;;;;7.15;3.72;;;10.10;99.90;;;;;;6140280;29;20579;-70
2022/11/06 13:50:37;;;;;;;5.35;3.80;;;10.10;99.90;;;;;;6140883;29;20507;-68
2022/11/06 13:53:46;;;;;;;5.85;3.88;;;10.20;99.90;;;;;;6141039;29;20608;-68
2022/11/06 13:57:16;;;;;;;4.88;3.95;;;10.20;99.90;;;;;;6142701;29;20273;-67
2022/11/06 14:00:21;;;;;;;7.43;3.75;;;10.20;99.90;;;;;;6140399;29;20563;-68
2022/11/06 14:04:00;;;;;;;7.28;4.10;;;10.20;99.90;;;;;;6140072;29;20299;-67
2022/11/06 14:07:06;;;;;;;7.20;4.00;;;10.20;99.90;;;;;;6139628;29;20303;-68
2022/11/06 14:10:20;;;;;;;6.70;4.05;;;10.20;99.90;;;;;;6145492;29;20258;-68
2022/11/06 14:13:30;;;;;;;5.65;3.78;;;10.20;99.90;;;;;;6146595;29;20302;-67
2022/11/06 14:16:37;;;;;;;4.82;3.58;;;10.20;99.90;;;;;;6164178;29;20270;-67
2022/11/06 14:20:02;;;;;;;7.30;3.50;;;10.30;99.90;;;;;;6162582;29;20306;-67
2022/11/06 14:23:46;;;;;;;6.60;3.60;;;10.30;99.90;;;;;;6163361;29;20335;-67
2022/11/06 14:26:51;;;;;;;3.80;3.50;;;10.30;99.90;;;;;;6142876;29;20274;-67
2022/11/06 14:30:01;;;;;;;4.25;3.25;;;10.30;99.90;;;;;;6163293;29;20294;-67
2022/11/06 14:33:48;;;;;;;3.75;3.45;;;10.30;99.90;;;;;;6162541;29;20310;-68
2022/11/06 14:36:54;;;;;;;5.22;3.63;;;10.40;99.90;;;;;;6136949;29;20279;-69
2022/11/06 14:40:12;;;;;;;4.57;3.28;;;10.50;99.90;;;;;;6115587;29;20304;-68
2022/11/06 14:43:18;;;;;;;5.28;2.75;;;10.50;99.90;;;;;;6115763;29;20308;-68
2022/11/06 14:46:24;;;;;;;4.60;3.13;;;10.50;99.90;;;;;;6099572;29;20276;-67
2022/11/06 14:49:36;;;;;;;3.30;2.97;;;10.50;99.90;;;;;;6115875;29;20300;-67
2022/11/06 14:52:46;;;;;;;3.55;3.25;;;10.50;99.90;;;;;;6115797;29;20607;-68
2022/11/06 14:55:58;;;;;;;4.95;2.78;;;10.50;99.90;;;;;;6116165;29;20271;-67
2022/11/06 14:59:06;;;;;;;3.35;2.75;;;10.60;99.90;;;;;;6115911;29;20460;-68
2022/11/06 15:02:18;;;;;;;3.28;3.08;;;10.60;99.90;;;;;;6115911;29;20268;-68
2022/11/06 15:05:23;;;;;;;6.10;3.35;;;10.60;99.90;;;;;;6116363;29;20276;-67
2022/11/06 15:09:01;;;;;;;4.28;2.58;;;10.60;99.90;;;;;;6115329;29;20304;-67
2022/11/06 15:12:08;;;;;;;4.35;2.47;;;10.60;99.90;;;;;;6135995;29;20284;-67
2022/11/06 15:15:17;;;;;;;5.53;2.65;;;10.70;99.90;;;;;;6139908;29;20287;-68
2022/11/06 15:18:25;;;;;;;3.15;2.50;;;10.60;99.90;;;;;;6139310;29;20295;-67
2022/11/06 15:21:32;;;;;;;7.53;2.80;;;10.70;99.90;;;;;;6122779;29;20354;-66
2022/11/06 15:24:43;;;;;;;2.58;2.42;;;10.70;99.90;;;;;;6138412;29;20311;-68
2022/11/06 15:27:56;;;;;;;3.42;2.45;;;10.70;99.90;;;;;;6138735;29;20307;-67
2022/11/06 15:31:05;;;;;;;4.60;3.28;;;10.60;99.90;;;;;;6140685;29;20271;-67
2022/11/06 15:34:17;;;;;;;2.53;2.33;;;10.70;99.90;;;;;;6143500;29;20299;-68
2022/11/06 15:37:27;;;;;;;6.47;2.83;;;10.70;99.90;;;;;;6143012;29;20271;-67
2022/11/06 15:40:35;;;;;;;2.50;2.33;;;10.70;99.90;;;;;;6143369;29;20275;-67
2022/11/06 15:43:40;;;;;;;2.85;2.65;;;10.70;99.90;;;;;;6142839;29;20299;-67
2022/11/06 15:46:54;;;;;;;4.00;2.60;;;10.80;99.90;;;;;;6143129;29;20267;-68
2022/11/06 15:50:15;;;;;;;3.65;2.60;;;10.70;99.90;;;;;;6143338;29;20490;-68
2022/11/06 15:53:23;;;;;;;6.47;2.80;;;10.80;99.90;;;;;;6142877;29;20486;-68
2022/11/06 15:56:33;;;;;;;3.28;2.58;;;10.70;99.90;;;;;;6126114;29;20275;-68
2022/11/06 15:59:38;;;;;;;4.32;2.78;;;10.70;99.90;;;;;;6142791;29;20582;-68
2022/11/06 16:02:51;;;;;;;7.70;3.35;;;10.70;99.90;;;;;;6142727;29;20290;-69
2022/11/06 16:05:57;;;;;;;2.83;2.63;;;10.70;99.90;;;;;;6142820;29;20299;-68
2022/11/06 16:09:03;;;;;;;3.47;2.42;;;10.70;99.90;;;;;;6142288;29;20299;-68
2022/11/06 16:12:12;;;;;;;2.92;2.72;;;10.70;99.90;;;;;;6163255;29;20263;-67
2022/11/06 16:15:49;;;;;;;3.20;2.55;;;10.80;99.90;;;;;;6166126;29;20298;-68
2022/11/06 16:18:54;;;;;;;4.05;2.67;;;10.70;99.90;;;;;;6165758;29;20595;-68
2022/11/06 16:22:02;;;;;;;4.53;2.42;;;10.80;99.90;;;;;;6166884;29;20272;-68
2022/11/06 16:25:16;;;;;;;2.92;2.72;;;10.80;99.90;;;;;;6165487;29;20274;-68
2022/11/06 16:28:23;;;;;;;2.67;2.58;;;10.80;99.90;;;;;;6166029;29;20298;-67
2022/11/06 16:31:29;;;;;;;3.05;2.47;;;10.80;99.90;;;;;;6166419;29;20543;-68
2022/11/06 16:34:42;;;;;;;2.50;2.40;;;10.80;99.90;;;;;;6165626;29;20306;-68
2022/11/06 16:37:47;;;;;;;2.95;2.53;;;10.90;99.90;;;;;;6165870;29;20299;-67
2022/11/06 16:40:54;;;;;;;4.25;3.20;;;10.90;99.90;;;;;;6166350;29;20453;-68
2022/11/06 16:44:24;;;;;;;2.65;2.65;;;10.90;99.90;;;;;;6165045;28;20298;-68
2022/11/06 16:47:35;;;;;;;4.53;2.65;;;10.80;99.90;;;;;;6165280;29;20294;-67